Time;durP1;ratioP1;P1;durP2;ratioP2;P2;SDS_P1;SDS_P2;PMS_P1;PMS_P2;Temp;Humidity;BMP_temperature;BMP_pressure;BME280_temperature;BME280_humidity;BME280_pressure;Samples;Min_cycle;Max_cycle;Signal;HPM_P1;HPM_P2
2023/10/21 00:02:07;;;;;;;9.80;5.80;;;;;;;15.87;100.00;99554.65;109390;1252;60827;-55
2023/10/21 00:04:34;;;;;;;14.40;7.10;;;;;;;15.89;100.00;99551.58;109357;1253;73330;-55
2023/10/21 00:07:02;;;;;;;9.30;5.50;;;;;;;15.89;100.00;99550.74;109432;1252;66796;-55
2023/10/21 00:09:29;;;;;;;10.90;6.50;;;;;;;15.90;100.00;99550.22;109244;1253;72725;-55
2023/10/21 00:11:57;;;;;;;9.40;6.60;;;;;;;15.91;100.00;99548.98;109366;1253;61248;-56
2023/10/21 00:14:25;;;;;;;9.30;6.50;;;;;;;15.93;100.00;99552.28;109415;1252;59166;-55
2023/10/21 00:16:52;;;;;;;8.40;6.30;;;;;;;15.94;100.00;99550.51;109415;1252;74716;-55
2023/10/21 00:19:20;;;;;;;9.60;6.60;;;;;;;15.95;100.00;99552.95;109442;1253;65624;-55
2023/10/21 00:21:48;;;;;;;9.60;6.80;;;;;;;15.95;100.00;99556.80;109272;1253;71576;-56
2023/10/21 00:24:15;;;;;;;8.70;6.10;;;;;;;15.95;100.00;99562.46;108956;1253;225382;-55
2023/10/21 00:26:49;;;;;;;11.10;6.90;;;;;;;15.95;100.00;99559.48;109385;1253;59137;-55
2023/10/21 00:29:17;;;;;;;8.70;6.10;;;;;;;15.96;100.00;99554.75;109384;1253;74742;-55
2023/10/21 00:31:45;;;;;;;10.80;6.50;;;;;;;15.96;100.00;99547.71;109277;1252;66034;-56
2023/10/21 00:34:12;;;;;;;11.50;6.50;;;;;;;15.97;100.00;99540.00;109309;1253;73256;-55
2023/10/21 00:36:40;;;;;;;8.20;6.30;;;;;;;15.97;100.00;99537.79;109378;1252;61702;-55
2023/10/21 00:39:10;;;;;;;14.40;7.00;;;;;;;15.98;100.00;99539.90;109407;1253;60113;-55
2023/10/21 00:41:39;;;;;;;9.40;6.70;;;;;;;15.98;100.00;99546.65;109102;1253;74812;-56
2023/10/21 00:44:07;;;;;;;10.30;6.70;;;;;;;16.00;100.00;99552.20;109381;1253;66924;-55
2023/10/21 00:46:34;;;;;;;11.20;6.90;;;;;;;15.99;100.00;99557.23;109320;1253;72713;-56
2023/10/21 00:49:04;;;;;;;11.00;7.60;;;;;;;16.00;100.00;99562.92;109369;1253;61773;-55
2023/10/21 00:51:32;;;;;;;12.10;6.90;;;;;;;16.00;100.00;99565.91;109442;1253;60603;-55
2023/10/21 00:54:00;;;;;;;12.40;6.90;;;;;;;16.00;100.00;99574.97;109111;1258;75276;-55
2023/10/21 00:56:28;;;;;;;12.00;6.80;;;;;;;16.00;100.00;99577.18;109410;1253;66974;-55
2023/10/21 00:58:56;;;;;;;11.00;6.60;;;;;;;16.01;100.00;99579.23;109191;1253;72736;-55
2023/10/21 01:01:23;;;;;;;10.10;6.90;;;;;;;16.02;100.00;99578.36;109107;1253;61781;-55
2023/10/21 01:03:51;;;;;;;11.30;7.70;;;;;;;16.02;100.00;99581.67;109331;1253;58862;-55
2023/10/21 01:06:19;;;;;;;12.30;8.70;;;;;;;16.00;100.00;99586.23;109373;1252;74746;-55
2023/10/21 01:08:47;;;;;;;10.20;6.50;;;;;;;16.01;100.00;99588.48;109368;1253;67405;-55
2023/10/21 01:11:14;;;;;;;10.40;7.00;;;;;;;16.01;100.00;99581.70;109164;1253;72648;-55
2023/10/21 01:13:43;;;;;;;14.70;7.40;;;;;;;16.01;100.00;99573.02;109305;1253;60478;-56
2023/10/21 01:16:11;;;;;;;12.40;7.40;;;;;;;16.01;100.00;99566.36;109295;1253;60077;-55
2023/10/21 01:18:39;;;;;;;13.10;7.90;;;;;;;16.01;100.00;99559.05;109309;1253;74756;-55
2023/10/21 01:21:08;;;;;;;11.00;7.50;;;;;;;16.00;100.00;99549.36;109389;1253;66087;-55
2023/10/21 01:23:36;;;;;;;13.00;7.80;;;;;;;16.00;100.00;99545.00;109180;1253;71458;-55
2023/10/21 01:26:07;;;;;;;11.00;6.70;;;;;;;16.00;100.00;99535.95;109290;1253;61397;-55
2023/10/21 01:28:34;;;;;;;10.20;6.10;;;;;;;15.98;100.00;99526.03;109296;1252;58876;-55
2023/10/21 01:31:02;;;;;;;12.70;7.50;;;;;;;15.98;100.00;99523.93;109281;1252;73401;-55
2023/10/21 01:33:29;;;;;;;10.60;6.10;;;;;;;15.97;100.00;99533.42;109329;1253;65819;-55
2023/10/21 01:35:58;;;;;;;14.10;7.40;;;;;;;15.96;100.00;99545.98;109176;1255;72094;-55
2023/10/21 01:38:25;;;;;;;9.20;6.80;;;;;;;15.96;100.00;99551.45;109315;1253;60531;-55
2023/10/21 01:40:53;;;;;;;12.00;7.50;;;;;;;15.96;100.00;99549.61;109200;1254;59174;-55
2023/10/21 01:43:20;;;;;;;11.90;7.00;;;;;;;15.96;100.00;99554.30;109329;1254;74830;-55
2023/10/21 01:45:48;;;;;;;10.40;7.30;;;;;;;15.97;100.00;99555.50;109247;1256;65679;-56
2023/10/21 01:48:16;;;;;;;8.50;6.50;;;;;;;15.97;100.00;99557.88;109172;1254;72720;-55
2023/10/21 01:50:44;;;;;;;10.30;6.80;;;;;;;15.98;100.00;99552.48;109132;1254;61758;-55
2023/10/21 01:53:12;;;;;;;10.50;6.30;;;;;;;15.99;100.00;99549.46;109223;1253;59051;-55
2023/10/21 01:55:42;;;;;;;10.40;6.70;;;;;;;15.99;100.00;99547.20;109386;1253;74782;-56
2023/10/21 01:58:10;;;;;;;8.80;6.50;;;;;;;16.00;100.00;99550.26;109247;1253;66745;-55
2023/10/21 02:00:37;;;;;;;9.50;6.70;;;;;;;16.01;100.00;99555.20;109226;1253;71609;-55
2023/10/21 02:03:05;;;;;;;11.80;6.40;;;;;;;16.00;100.00;99549.00;109346;1253;60932;-55
2023/10/21 02:05:33;;;;;;;9.10;6.90;;;;;;;16.01;100.00;99546.11;109257;1253;60059;-55
2023/10/21 02:08:01;;;;;;;13.30;8.40;;;;;;;16.00;100.00;99548.15;109271;1252;73819;-56
2023/10/21 02:10:28;;;;;;;19.70;11.10;;;;;;;15.98;100.00;99548.39;109440;1253;67095;-55
2023/10/21 02:12:56;;;;;;;14.20;9.80;;;;;;;15.98;100.00;99554.58;109357;1253;72665;-55
2023/10/21 02:15:24;;;;;;;10.20;8.40;;;;;;;15.97;100.00;99559.86;109388;1253;60576;-55
2023/10/21 02:17:51;;;;;;;12.40;7.30;;;;;;;15.96;100.00;99559.96;109220;1252;60306;-56
2023/10/21 02:20:19;;;;;;;12.40;6.70;;;;;;;15.96;100.00;99556.86;109267;1253;72598;-55
2023/10/21 02:22:47;;;;;;;8.30;5.90;;;;;;;15.97;100.00;99562.70;109404;1253;65788;-56
2023/10/21 02:25:15;;;;;;;9.90;6.00;;;;;;;15.97;100.00;99559.14;109384;1253;72903;-55
2023/10/21 02:27:43;;;;;;;8.50;5.60;;;;;;;15.97;100.00;99560.02;109345;1253;60391;-55
2023/10/21 02:30:13;;;;;;;9.30;5.70;;;;;;;15.97;100.00;99559.45;109350;1253;60882;-56
2023/10/21 02:32:45;;;;;;;12.20;7.30;;;;;;;15.97;100.00;99560.30;109382;1256;74725;-55
2023/10/21 02:35:13;;;;;;;9.10;6.70;;;;;;;15.97;100.00;99559.70;109163;1253;65019;-55
2023/10/21 02:37:41;;;;;;;10.30;7.00;;;;;;;15.97;100.00;99557.71;109171;1253;71382;-55
2023/10/21 02:40:10;;;;;;;9.80;6.90;;;;;;;15.96;100.00;99557.66;109302;1253;60975;-55
2023/10/21 02:42:37;;;;;;;11.30;6.20;;;;;;;15.96;100.00;99554.91;109377;1252;60062;-55
2023/10/21 02:45:06;;;;;;;9.20;5.80;;;;;;;15.96;100.00;99550.02;109391;1253;74776;-55
2023/10/21 02:47:34;;;;;;;9.80;5.70;;;;;;;15.96;100.00;99554.34;109298;1253;65512;-55
2023/10/21 02:50:03;;;;;;;11.70;6.60;;;;;;;15.97;100.00;99556.81;109346;1252;72824;-56
2023/10/21 02:52:31;;;;;;;9.00;5.70;;;;;;;15.98;100.00;99563.36;109345;1253;61753;-55
2023/10/21 02:54:58;;;;;;;10.60;6.50;;;;;;;15.97;100.00;99562.96;109399;1253;59267;-55
2023/10/21 02:57:26;;;;;;;13.10;7.50;;;;;;;15.97;100.00;99562.65;109435;1253;73485;-55
2023/10/21 02:59:54;;;;;;;12.30;6.40;;;;;;;15.97;100.00;99560.66;109345;1253;65631;-55
2023/10/21 03:02:22;;;;;;;10.30;6.90;;;;;;;15.97;100.00;99559.40;109363;1253;72725;-55
2023/10/21 03:04:50;;;;;;;11.00;6.50;;;;;;;15.96;100.00;99556.39;109350;1253;60476;-55
2023/10/21 03:07:17;;;;;;;8.60;5.80;;;;;;;15.95;100.00;99552.02;109233;1253;60240;-55
2023/10/21 03:09:45;;;;;;;9.80;5.80;;;;;;;15.95;100.00;99547.90;109220;1253;73505;-56
2023/10/21 03:12:13;;;;;;;7.80;5.50;;;;;;;15.95;100.00;99543.50;109384;1252;66341;-55
2023/10/21 03:14:40;;;;;;;10.40;6.50;;;;;;;15.95;100.00;99538.03;109227;1253;71440;-55
2023/10/21 03:17:08;;;;;;;10.70;6.00;;;;;;;15.95;100.00;99534.20;109343;1253;60374;-55
2023/10/21 03:19:35;;;;;;;10.10;6.70;;;;;;;15.95;100.00;99538.27;109360;1253;59434;-55
2023/10/21 03:22:03;;;;;;;9.00;6.50;;;;;;;15.94;100.00;99538.16;109361;1253;75252;-55
2023/10/21 03:24:31;;;;;;;8.20;6.70;;;;;;;15.96;100.00;99536.20;109321;1253;67038;-55
2023/10/21 03:26:59;;;;;;;8.80;5.90;;;;;;;15.96;100.00;99536.93;109186;1253;71547;-55
2023/10/21 03:29:27;;;;;;;13.50;7.90;;;;;;;15.95;100.00;99541.23;109391;1253;60392;-55
2023/10/21 03:31:54;;;;;;;10.70;5.60;;;;;;;15.94;100.00;99549.73;109351;1253;60103;-56
2023/10/21 03:34:22;;;;;;;10.90;6.50;;;;;;;15.94;100.00;99552.20;109380;1253;74697;-55
2023/10/21 03:36:49;;;;;;;9.10;5.40;;;;;;;15.95;100.00;99541.71;109393;1253;66991;-55
2023/10/21 03:39:17;;;;;;;10.30;6.00;;;;;;;15.94;100.00;99539.25;109379;1253;71303;-55
2023/10/21 03:41:46;;;;;;;10.00;6.00;;;;;;;15.94;100.00;99536.59;109354;1253;61767;-56
2023/10/21 03:44:14;;;;;;;11.40;6.70;;;;;;;15.96;100.00;99539.88;109327;1255;59007;-55
2023/10/21 03:46:41;;;;;;;9.50;6.70;;;;;;;15.95;100.00;99535.98;109397;1253;73356;-55
2023/10/21 03:49:09;;;;;;;11.20;7.00;;;;;;;15.95;100.00;99533.39;109292;1254;66893;-55
2023/10/21 03:51:37;;;;;;;12.50;6.90;;;;;;;15.94;100.00;99551.46;109271;1254;72419;-55
2023/10/21 03:54:05;;;;;;;10.40;6.60;;;;;;;15.95;100.00;99561.09;109102;1254;60467;-55
2023/10/21 03:56:33;;;;;;;9.50;7.00;;;;;;;15.96;100.00;99571.00;109169;1254;58878;-55
2023/10/21 03:59:01;;;;;;;12.60;6.80;;;;;;;15.96;100.00;99568.33;109270;1254;74628;-55
2023/10/21 04:01:28;;;;;;;9.80;7.20;;;;;;;15.96;100.00;99560.61;109235;1253;65710;-55
2023/10/21 04:03:56;;;;;;;14.80;7.10;;;;;;;15.99;100.00;99559.38;109063;1260;74989;-55
2023/10/21 04:06:24;;;;;;;10.10;7.10;;;;;;;15.98;100.00;99552.47;109412;1253;60483;-55
2023/10/21 04:08:51;;;;;;;12.90;6.70;;;;;;;15.99;100.00;99552.98;109371;1253;58869;-55
2023/10/21 04:11:21;;;;;;;11.20;7.10;;;;;;;15.98;100.00;99558.10;109319;1253;73465;-55
2023/10/21 04:13:48;;;;;;;12.80;7.10;;;;;;;15.98;100.00;99562.98;109364;1256;67031;-55
2023/10/21 04:16:16;;;;;;;13.50;7.00;;;;;;;16.00;100.00;99568.03;109267;1253;71487;-55
2023/10/21 04:18:44;;;;;;;11.50;7.60;;;;;;;16.01;100.00;99572.98;109386;1253;60466;-55
2023/10/21 04:21:12;;;;;;;11.40;6.90;;;;;;;16.02;100.00;99578.03;109411;1253;59044;-55
2023/10/21 04:23:40;;;;;;;12.10;7.10;;;;;;;16.02;100.00;99571.23;109396;1253;74738;-56
2023/10/21 04:26:07;;;;;;;11.80;7.70;;;;;;;16.04;100.00;99580.56;109300;1253;65693;-55
2023/10/21 04:28:35;;;;;;;12.60;7.40;;;;;;;16.03;100.00;99580.44;109382;1253;72677;-55
2023/10/21 04:31:02;;;;;;;13.30;8.30;;;;;;;16.03;100.00;99577.71;109396;1252;61744;-56
2023/10/21 04:33:30;;;;;;;10.70;7.60;;;;;;;16.03;100.00;99574.61;109307;1254;59172;-55
2023/10/21 04:35:58;;;;;;;12.10;7.60;;;;;;;16.06;100.00;99579.48;109404;1253;73982;-57
2023/10/21 04:38:25;;;;;;;11.70;7.50;;;;;;;16.06;100.00;99581.91;109426;1252;67328;-55
2023/10/21 04:40:53;;;;;;;12.00;7.30;;;;;;;16.05;100.00;99576.41;109252;1255;71461;-56
2023/10/21 04:43:21;;;;;;;11.30;7.10;;;;;;;16.06;100.00;99580.21;109262;1253;60552;-56
2023/10/21 04:45:49;;;;;;;14.50;7.40;;;;;;;16.07;100.00;99572.39;109407;1254;60220;-56
2023/10/21 04:48:16;;;;;;;11.60;7.30;;;;;;;16.08;100.00;99575.20;109355;1254;75442;-56
2023/10/21 04:50:44;;;;;;;14.70;7.60;;;;;;;16.08;100.00;99568.33;109397;1253;66959;-56
2023/10/21 04:53:12;;;;;;;13.70;8.00;;;;;;;16.09;100.00;99580.27;109358;1253;72819;-56
2023/10/21 04:55:39;;;;;;;15.00;8.70;;;;;;;16.10;100.00;99591.91;109379;1253;60486;-55
2023/10/21 04:58:07;;;;;;;11.20;8.00;;;;;;;16.08;100.00;99591.78;109339;1252;60094;-56
2023/10/21 05:00:35;;;;;;;12.90;8.10;;;;;;;16.08;100.00;99586.94;109378;1253;74692;-56
2023/10/21 05:03:03;;;;;;;11.60;8.20;;;;;;;16.08;100.00;99590.41;109369;1252;65696;-55
2023/10/21 05:05:30;;;;;;;12.50;7.80;;;;;;;16.07;100.00;99592.70;109349;1253;72631;-55
2023/10/21 05:07:58;;;;;;;14.20;9.00;;;;;;;16.07;100.00;99595.69;109371;1253;61763;-57
2023/10/21 05:10:25;;;;;;;11.60;7.80;;;;;;;16.06;100.00;99597.73;109292;1252;60064;-55
2023/10/21 05:12:53;;;;;;;10.90;8.30;;;;;;;16.05;100.00;99599.55;109385;1253;73906;-56
2023/10/21 05:15:21;;;;;;;11.70;8.90;;;;;;;16.05;100.00;99604.39;109395;1254;66987;-56
2023/10/21 05:17:49;;;;;;;11.70;7.40;;;;;;;16.05;100.00;99606.27;109288;1254;71513;-56
2023/10/21 05:20:17;;;;;;;11.40;8.20;;;;;;;16.02;100.00;99607.39;109319;1256;62234;-57
2023/10/21 05:22:45;;;;;;;11.20;7.60;;;;;;;15.98;100.00;99613.61;109275;1254;60010;-56
2023/10/21 05:25:12;;;;;;;12.20;8.00;;;;;;;15.98;100.00;99616.66;109371;1252;74661;-55
2023/10/21 05:27:40;;;;;;;11.50;8.40;;;;;;;16.03;100.00;99615.25;109369;1254;65159;-56
2023/10/21 05:30:08;;;;;;;13.10;8.10;;;;;;;16.04;100.00;99617.32;109333;1252;71487;-57
2023/10/21 05:32:36;;;;;;;13.00;7.70;;;;;;;16.04;100.00;99614.73;109347;1254;61861;-56
2023/10/21 05:35:08;;;;;;;11.10;7.40;;;;;;;16.07;100.00;99611.83;109313;1253;58954;-56
2023/10/21 05:37:35;;;;;;;;;;;;;;;16.08;100.00;99615.74;109397;1254;74941;-56
2023/10/21 05:40:06;;;;;;;10.50;7.90;;;;;;;16.07;100.00;99614.73;109369;1254;67533;-57
2023/10/21 05:42:33;;;;;;;15.70;9.60;;;;;;;16.06;100.00;99611.23;109360;1254;72747;-56
2023/10/21 05:45:01;;;;;;;13.60;9.30;;;;;;;16.04;100.00;99602.12;109371;1252;60481;-56
2023/10/21 05:47:28;;;;;;;13.30;9.00;;;;;;;16.04;100.00;99599.54;109271;1255;58962;-55
2023/10/21 05:49:56;;;;;;;12.30;9.10;;;;;;;16.05;100.00;99602.44;109329;1253;73362;-56
2023/10/21 05:52:24;;;;;;;13.00;9.60;;;;;;;16.05;100.00;99612.38;109404;1253;66322;-56
2023/10/21 05:54:51;;;;;;;14.60;9.80;;;;;;;16.07;100.00;99627.73;109357;1254;70752;-55
2023/10/21 05:57:19;;;;;;;15.30;10.30;;;;;;;16.08;100.00;99634.89;109340;1254;61742;-55
2023/10/21 05:59:46;;;;;;;13.70;9.60;;;;;;;16.08;100.00;99639.89;109292;1253;60081;-57
2023/10/21 06:02:14;;;;;;;14.50;9.60;;;;;;;16.08;100.00;99643.26;109273;1253;75191;-56
2023/10/21 06:04:41;;;;;;;17.10;10.40;;;;;;;16.07;100.00;99643.09;109392;1253;66832;-55
2023/10/21 06:07:10;;;;;;;16.10;11.10;;;;;;;16.09;100.00;99636.58;109375;1253;72782;-56
2023/10/21 06:09:40;;;;;;;15.60;9.70;;;;;;;16.10;100.00;99626.61;109249;1254;60778;-56
2023/10/21 06:12:08;;;;;;;14.30;9.40;;;;;;;16.11;100.00;99626.23;109344;1254;60553;-55
2023/10/21 06:14:35;;;;;;;18.30;10.40;;;;;;;16.11;100.00;99616.44;109389;1253;73413;-57
2023/10/21 06:17:03;;;;;;;15.10;10.10;;;;;;;16.11;100.00;99614.40;109443;1254;67099;-55
2023/10/21 06:19:31;;;;;;;17.20;11.20;;;;;;;16.12;100.00;99618.98;109340;1254;72394;-54
2023/10/21 06:21:58;;;;;;;15.30;10.50;;;;;;;16.14;100.00;99612.91;109266;1254;60468;-56
2023/10/21 06:24:26;;;;;;;17.80;11.10;;;;;;;16.16;100.00;99603.65;109246;1253;59531;-55
2023/10/21 06:26:53;;;;;;;17.40;11.80;;;;;;;16.19;100.00;99601.29;109241;1254;73125;-55
2023/10/21 06:29:23;;;;;;;14.90;9.70;;;;;;;16.22;100.00;99598.39;109326;1253;67035;-55
2023/10/21 06:31:52;;;;;;;17.50;10.40;;;;;;;16.25;100.00;99595.50;109266;1253;71445;-56
2023/10/21 06:34:19;;;;;;;18.90;11.30;;;;;;;16.27;100.00;99595.43;109237;1253;62568;-57
2023/10/21 06:36:47;;;;;;;15.50;9.60;;;;;;;16.30;100.00;99597.01;109378;1253;60201;-54
2023/10/21 06:39:14;;;;;;;14.50;9.30;;;;;;;16.34;100.00;99597.28;109279;1253;74728;-54
2023/10/21 06:41:43;;;;;;;12.60;8.70;;;;;;;16.37;100.00;99597.13;109266;1253;65813;-54
2023/10/21 06:44:11;;;;;;;12.80;9.30;;;;;;;16.39;100.00;99602.54;109310;1254;71472;-54
2023/10/21 06:46:38;;;;;;;12.60;9.00;;;;;;;16.44;100.00;99605.40;109282;1253;61004;-54
2023/10/21 06:49:06;;;;;;;13.40;9.70;;;;;;;16.48;100.00;99601.17;109307;1253;59000;-54
2023/10/21 06:51:34;;;;;;;14.60;9.10;;;;;;;16.54;100.00;99595.09;109303;1254;74708;-54
2023/10/21 06:54:02;;;;;;;15.40;9.60;;;;;;;16.59;100.00;99597.19;109381;1254;66990;-55
2023/10/21 06:56:30;;;;;;;15.50;9.70;;;;;;;16.65;100.00;99607.38;109350;1254;72786;-54
2023/10/21 06:58:57;;;;;;;16.30;10.70;;;;;;;16.70;100.00;99601.88;109368;1253;60471;-54
2023/10/21 07:01:25;;;;;;;15.70;10.90;;;;;;;16.74;100.00;99596.66;109351;1253;58988;-54
2023/10/21 07:03:53;;;;;;;13.60;10.00;;;;;;;16.76;100.00;99602.11;109374;1254;74735;-55
2023/10/21 07:06:21;;;;;;;16.00;9.80;;;;;;;16.77;100.00;99602.34;109375;1253;66999;-54
2023/10/21 07:08:49;;;;;;;14.20;9.00;;;;;;;16.77;100.00;99600.81;109377;1254;71435;-55
2023/10/21 07:11:16;;;;;;;13.60;9.20;;;;;;;16.78;100.00;99597.30;109289;1254;60425;-55
2023/10/21 07:13:44;;;;;;;13.60;8.50;;;;;;;16.80;100.00;99603.08;109216;1254;59084;-55
2023/10/21 07:16:11;;;;;;;14.20;8.50;;;;;;;16.82;100.00;99604.25;109231;1254;74739;-56
2023/10/21 07:18:39;;;;;;;12.70;7.80;;;;;;;16.86;100.00;99601.90;109243;1254;68189;-56
2023/10/21 07:21:08;;;;;;;13.90;8.40;;;;;;;16.90;100.00;99597.12;109241;1253;72677;-56
2023/10/21 07:23:38;;;;;;;12.40;8.30;;;;;;;16.95;100.00;99599.23;109376;1252;60364;-56
2023/10/21 07:26:06;;;;;;;14.70;8.60;;;;;;;17.00;100.00;99596.68;109299;1253;60120;-55
2023/10/21 07:28:33;;;;;;;13.80;8.60;;;;;;;17.09;100.00;99594.92;109383;1254;75158;-54
2023/10/21 07:31:01;;;;;;;13.10;8.40;;;;;;;17.21;100.00;99595.25;109345;1253;67265;-54
2023/10/21 07:33:29;;;;;;;14.20;8.80;;;;;;;17.37;100.00;99594.04;109359;1253;71350;-55
2023/10/21 07:35:57;;;;;;;10.00;7.50;;;;;;;17.54;100.00;99588.77;109367;1253;60230;-56
2023/10/21 07:38:25;;;;;;;11.60;8.30;;;;;;;17.66;100.00;99583.45;109405;1253;60054;-54
2023/10/21 07:40:52;;;;;;;10.80;7.50;;;;;;;17.79;100.00;99580.77;109377;1253;74730;-55
2023/10/21 07:43:20;;;;;;;12.00;7.90;;;;;;;17.91;100.00;99576.20;109296;1253;66216;-55
2023/10/21 07:45:48;;;;;;;9.60;8.10;;;;;;;18.10;100.00;99577.19;109336;1253;71353;-56
2023/10/21 07:48:16;;;;;;;11.20;8.60;;;;;;;18.29;100.00;99575.11;109350;1253;60544;-54
2023/10/21 07:50:44;;;;;;;11.30;8.30;;;;;;;18.46;100.00;99570.76;109332;1253;60078;-55
2023/10/21 07:53:11;;;;;;;16.20;8.90;;;;;;;18.62;100.00;99551.79;109250;1254;73870;-55
2023/10/21 07:55:40;;;;;;;12.30;8.30;;;;;;;18.82;100.00;99547.88;109296;1253;65814;-56
2023/10/21 07:58:08;;;;;;;9.90;7.00;;;;;;;19.04;100.00;99542.20;109422;1253;71448;-54
2023/10/21 08:00:36;;;;;;;12.40;8.30;;;;;;;19.23;100.00;99535.11;109343;1254;60577;-54
2023/10/21 08:03:05;;;;;;;14.70;11.00;;;;;;;19.40;100.00;99536.94;109315;1254;59072;-54
2023/10/21 08:05:32;;;;;;;12.80;9.70;;;;;;;19.56;100.00;99538.85;109286;1252;74970;-55
2023/10/21 08:08:00;;;;;;;13.30;9.20;;;;;;;19.76;100.00;99534.91;109379;1252;67574;-57
2023/10/21 08:10:28;;;;;;;13.20;9.60;;;;;;;19.93;100.00;99524.20;109374;1252;72702;-57
2023/10/21 08:12:56;;;;;;;11.70;9.80;;;;;;;20.09;100.00;99517.72;109379;1253;60125;-57
2023/10/21 08:15:24;;;;;;;13.10;8.70;;;;;;;20.32;100.00;99511.16;109304;1253;59139;-57
2023/10/21 08:17:53;;;;;;;12.80;8.90;;;;;;;20.55;100.00;99507.40;109364;1254;75243;-55
2023/10/21 08:20:20;;;;;;;14.10;10.00;;;;;;;20.72;100.00;99505.58;109417;1254;66986;-54
2023/10/21 08:22:48;;;;;;;13.40;8.10;;;;;;;20.76;100.00;99500.75;109372;1253;72472;-54
2023/10/21 08:25:16;;;;;;;15.90;10.80;;;;;;;20.74;100.00;99493.02;109271;1253;61768;-54
2023/10/21 08:27:43;;;;;;;14.20;10.50;;;;;;;20.77;100.00;99491.54;109258;1253;58937;-54
2023/10/21 08:30:12;;;;;;;17.80;10.90;;;;;;;20.87;100.00;99494.38;109400;1253;74765;-55
2023/10/21 08:32:40;;;;;;;12.50;8.60;;;;;;;21.04;100.00;99493.15;109302;1253;66844;-55
2023/10/21 08:35:08;;;;;;;10.70;8.20;;;;;;;21.19;100.00;99492.03;109376;1252;72724;-55
2023/10/21 08:37:37;;;;;;;11.40;7.10;;;;;;;21.30;100.00;99495.91;109384;1253;60144;-56
2023/10/21 08:40:08;;;;;;;9.30;7.40;;;;;;;21.42;100.00;99487.02;109386;1253;59459;-54
2023/10/21 08:42:36;;;;;;;11.20;7.60;;;;;;;21.56;100.00;99482.81;109280;1253;73379;-56
2023/10/21 08:45:24;;;;;;;10.70;7.30;;;;;;;21.85;100.00;99476.80;109354;1252;65648;-55
2023/10/21 08:47:53;;;;;;;11.10;7.30;;;;;;;22.17;100.00;99467.81;109209;1253;73185;-55
2023/10/21 08:50:20;;;;;;;12.20;7.70;;;;;;;22.52;100.00;99456.35;109222;1253;60175;-55
2023/10/21 08:52:48;;;;;;;10.50;7.60;;;;;;;22.77;100.00;99446.29;109086;1253;60107;-55
2023/10/21 08:55:15;;;;;;;10.20;7.50;;;;;;;22.89;100.00;99442.33;109357;1253;73438;-56
2023/10/21 08:57:43;;;;;;;11.30;7.20;;;;;;;22.95;100.00;99446.13;109338;1253;67270;-55
2023/10/21 09:00:11;;;;;;;13.00;8.50;;;;;;;22.94;100.00;99451.48;109335;1253;72785;-54
2023/10/21 09:02:39;;;;;;;15.80;10.50;;;;;;;22.88;100.00;99450.21;109274;1253;59116;-55
2023/10/21 09:05:13;;;;;;;14.00;10.00;;;;;;;22.83;100.00;99445.69;109365;1252;58926;-56
2023/10/21 09:07:48;;;;;;;10.90;7.30;;;;;;;22.84;100.00;99446.10;109334;1253;74741;-55
2023/10/21 09:10:17;;;;;;;15.40;9.50;;;;;;;22.86;100.00;99444.88;109344;1253;67087;-55
2023/10/21 09:12:45;;;;;;;9.50;7.30;;;;;;;22.92;100.00;99447.09;109332;1253;71461;-58
2023/10/21 09:15:13;;;;;;;12.80;8.10;;;;;;;22.92;100.00;99447.85;109392;1253;59200;-55
2023/10/21 09:17:51;;;;;;;11.40;7.40;;;;;;;22.92;100.00;99446.41;109227;1253;59050;-55
2023/10/21 09:20:20;;;;;;;11.90;7.00;;;;;;;23.02;100.00;99446.88;109258;1254;74759;-54
2023/10/21 09:22:57;;;;;;;18.00;14.70;;;;;;;23.15;100.00;99448.30;109188;1254;65496;-55
2023/10/21 09:25:25;;;;;;;18.10;13.70;;;;;;;23.34;100.00;99441.62;109293;1254;72737;-55
2023/10/21 09:27:53;;;;;;;20.70;13.70;;;;;;;23.49;100.00;99442.11;109294;1254;58944;-54
2023/10/21 09:30:28;;;;;;;12.00;8.40;;;;;;;23.69;100.00;99445.78;109369;1253;59000;-54
2023/10/21 09:33:07;;;;;;;12.10;7.30;;;;;;;23.90;100.00;99440.06;109320;1253;73467;-55
2023/10/21 09:35:36;;;;;;;12.40;9.00;;;;;;;24.18;100.00;99435.35;109259;1253;66753;-55
2023/10/21 09:38:16;;;;;;;13.20;8.30;;;;;;;24.45;100.00;99429.86;109203;1253;71453;-58
2023/10/21 09:40:44;;;;;;;9.80;7.70;;;;;;;24.69;100.00;99428.64;109362;1253;61472;-54
2023/10/21 09:43:12;;;;;;;12.40;8.20;;;;;;;24.90;100.00;99430.75;109295;1253;60171;-56
2023/10/21 09:45:42;;;;;;;12.60;7.70;;;;;;;25.11;100.00;99423.09;109348;1252;73556;-55
2023/10/21 09:48:21;;;;;;;10.50;6.80;;;;;;;25.33;100.00;99420.95;109320;1252;66280;-55
2023/10/21 09:50:54;;;;;;;11.30;6.60;;;;;;;25.44;100.00;99417.73;109346;1252;71479;-55
2023/10/21 09:53:23;;;;;;;9.50;6.20;;;;;;;25.39;100.00;99416.73;109317;1252;59169;-55
2023/10/21 09:55:51;;;;;;;15.50;8.00;;;;;;;25.19;100.00;99424.00;109377;1253;59051;-55
2023/10/21 09:58:40;;;;;;;11.70;6.50;;;;;;;24.95;100.00;99418.66;108982;1253;74764;-54
2023/10/21 10:01:08;;;;;;;10.40;7.30;;;;;;;24.73;100.00;99421.77;109332;1253;67433;-55
2023/10/21 10:03:36;;;;;;;7.10;6.20;;;;;;;24.65;100.00;99421.83;109330;1252;71461;-55
2023/10/21 10:06:04;;;;;;;9.50;6.50;;;;;;;24.67;100.00;99423.02;109288;1252;59234;-55
2023/10/21 10:08:33;;;;;;;10.90;7.10;;;;;;;24.79;100.00;99425.55;109319;1252;59417;-56
2023/10/21 10:11:08;;;;;;;10.10;6.70;;;;;;;25.02;100.00;99426.16;109338;1252;74726;-55
2023/10/21 10:13:37;;;;;;;7.80;5.70;;;;;;;25.31;100.00;99429.08;109304;1251;66090;-55
2023/10/21 10:16:24;;;;;;;12.60;7.90;;;;;;;25.62;100.00;99430.59;108978;1253;73116;-57
2023/10/21 10:18:52;;;;;;;11.20;7.50;;;;;;;25.88;100.00;99430.71;109337;1253;59017;-57
2023/10/21 10:21:20;;;;;;;9.20;5.90;;;;;;;25.95;100.00;99430.86;109328;1253;60024;-55
2023/10/21 10:23:50;;;;;;;9.40;6.30;;;;;;;25.93;100.00;99428.39;109138;1253;74771;-57
2023/10/21 10:26:37;;;;;;;8.90;6.00;;;;;;;25.84;100.00;99435.56;109372;1252;65631;-57
2023/10/21 10:29:25;;;;;;;8.30;6.00;;;;;;;25.69;100.00;99441.48;109306;1253;72657;-58
2023/10/21 10:32:15;;;;;;;11.10;5.60;;;;;;;25.62;100.00;99445.89;109402;1252;58967;-55
2023/10/21 10:34:52;;;;;;;7.90;5.50;;;;;;;25.56;100.00;99451.61;109263;1253;58901;-56
2023/10/21 10:37:51;;;;;;;10.60;6.20;;;;;;;25.58;100.00;99463.35;109407;1252;74704;-55
2023/10/21 10:40:19;;;;;;;10.10;6.60;;;;;;;25.64;100.00;99465.36;109236;1252;65515;-55
2023/10/21 10:42:47;;;;;;;7.80;5.30;;;;;;;25.63;100.00;99460.74;109361;1252;72715;-55
2023/10/21 10:45:14;;;;;;;10.00;6.20;;;;;;;25.61;100.00;99458.34;109415;1252;58937;-55
2023/10/21 10:47:43;;;;;;;8.70;5.30;;;;;;;25.63;100.00;99456.10;109305;1252;59146;-55
2023/10/21 10:50:19;;;;;;;8.60;5.20;;;;;;;25.63;100.00;99454.45;109088;1253;73465;-54
2023/10/21 10:52:46;;;;;;;8.80;5.50;;;;;;;25.62;100.00;99459.65;109442;1252;66876;-55
2023/10/21 10:55:15;;;;;;;7.20;5.80;;;;;;;25.62;100.00;99459.28;109321;1252;72604;-55
2023/10/21 10:57:43;;;;;;;8.70;6.00;;;;;;;25.60;100.00;99466.47;109310;1252;60234;-57
2023/10/21 11:00:20;;;;;;;11.10;6.30;;;;;;;25.56;100.00;99466.25;109206;1252;59706;-57
2023/10/21 11:02:49;;;;;;;9.40;6.30;;;;;;;25.50;100.00;99470.39;109310;1252;74760;-55
2023/10/21 11:05:20;;;;;;;9.50;6.30;;;;;;;25.47;100.00;99478.77;109353;1252;66955;-58
2023/10/21 11:07:52;;;;;;;10.80;6.30;;;;;;;25.43;100.00;99483.94;109329;1252;71440;-56
2023/10/21 11:10:21;;;;;;;9.40;6.80;;;;;;;25.46;100.00;99490.44;109270;1253;58970;-55
2023/10/21 11:12:49;;;;;;;9.30;6.20;;;;;;;25.58;100.00;99484.60;109372;1253;60081;-55
2023/10/21 11:15:17;;;;;;;10.50;6.90;;;;;;;25.78;100.00;99475.89;109251;1253;72963;-57
2023/10/21 11:17:47;;;;;;;10.20;7.40;;;;;;;25.97;100.00;99479.74;109305;1253;65573;-55